sensor_id;sensor_type;location;lat;lon;timestamp;temperature;humidity
76172;DHT22;64929;51.178;4.138;2024-03-22T00:01:15;13.70;99.90
76172;DHT22;64929;51.178;4.138;2024-03-22T00:03:41;13.60;99.90
76172;DHT22;64929;51.178;4.138;2024-03-22T00:06:06;13.60;99.90
76172;DHT22;64929;51.178;4.138;2024-03-22T00:08:32;13.70;99.90
76172;DHT22;64929;51.178;4.138;2024-03-22T00:10:58;13.60;99.90
76172;DHT22;64929;51.178;4.138;2024-03-22T00:13:23;13.70;99.90
76172;DHT22;64929;51.178;4.138;2024-03-22T00:15:49;13.70;99.90
76172;DHT22;64929;51.178;4.138;2024-03-22T00:18:15;13.80;99.90
76172;DHT22;64929;51.178;4.138;2024-03-22T00:20:41;13.80;99.90
76172;DHT22;64929;51.178;4.138;2024-03-22T00:23:06;13.70;99.90
76172;DHT22;64929;51.178;4.138;2024-03-22T00:25:32;13.60;99.90
76172;DHT22;64929;51.178;4.138;2024-03-22T00:27:57;13.60;99.90
76172;DHT22;64929;51.178;4.138;2024-03-22T00:30:23;13.50;99.90
76172;DHT22;64929;51.178;4.138;2024-03-22T00:32:48;13.50;99.90
76172;DHT22;64929;51.178;4.138;2024-03-22T00:35:14;13.40;99.90
76172;DHT22;64929;51.178;4.138;2024-03-22T00:37:39;13.50;99.90
76172;DHT22;64929;51.178;4.138;2024-03-22T00:40:05;13.50;99.90
76172;DHT22;64929;51.178;4.138;2024-03-22T00:42:31;13.50;99.90
76172;DHT22;64929;51.178;4.138;2024-03-22T00:44:56;13.40;99.90
76172;DHT22;64929;51.178;4.138;2024-03-22T00:47:23;13.30;99.90
76172;DHT22;64929;51.178;4.138;2024-03-22T00:49:48;13.30;99.90
76172;DHT22;64929;51.178;4.138;2024-03-22T00:52:14;13.30;99.90
76172;DHT22;64929;51.178;4.138;2024-03-22T00:54:40;13.40;99.90
76172;DHT22;64929;51.178;4.138;2024-03-22T00:57:06;13.20;99.90
76172;DHT22;64929;51.178;4.138;2024-03-22T00:59:32;13.10;99.90
76172;DHT22;64929;51.178;4.138;2024-03-22T01:01:57;13.20;99.90
76172;DHT22;64929;51.178;4.138;2024-03-22T01:04:23;13.20;99.90
76172;DHT22;64929;51.178;4.138;2024-03-22T01:06:48;13.20;99.90
76172;DHT22;64929;51.178;4.138;2024-03-22T01:09:14;13.20;99.90
76172;DHT22;64929;51.178;4.138;2024-03-22T01:11:40;13.30;99.90
76172;DHT22;64929;51.178;4.138;2024-03-22T01:14:05;13.10;99.90
76172;DHT22;64929;51.178;4.138;2024-03-22T01:16:31;13.00;99.90
76172;DHT22;64929;51.178;4.138;2024-03-22T01:18:56;12.90;99.90
76172;DHT22;64929;51.178;4.138;2024-03-22T01:21:22;12.80;99.90
76172;DHT22;64929;51.178;4.138;2024-03-22T01:23:53;13.00;99.90
76172;DHT22;64929;51.178;4.138;2024-03-22T01:26:18;13.00;99.90
76172;DHT22;64929;51.178;4.138;2024-03-22T01:28:44;12.90;99.90
76172;DHT22;64929;51.178;4.138;2024-03-22T01:31:09;12.90;99.90
76172;DHT22;64929;51.178;4.138;2024-03-22T01:33:35;12.70;99.90
76172;DHT22;64929;51.178;4.138;2024-03-22T01:36:00;12.80;99.90
76172;DHT22;64929;51.178;4.138;2024-03-22T01:38:26;12.80;99.90
76172;DHT22;64929;51.178;4.138;2024-03-22T01:40:52;12.80;99.90
76172;DHT22;64929;51.178;4.138;2024-03-22T01:43:17;12.70;99.90
76172;DHT22;64929;51.178;4.138;2024-03-22T01:45:43;12.70;99.90
76172;DHT22;64929;51.178;4.138;2024-03-22T01:48:08;12.70;99.90
76172;DHT22;64929;51.178;4.138;2024-03-22T01:50:34;12.60;99.90
76172;DHT22;64929;51.178;4.138;2024-03-22T01:53:00;12.50;99.90
76172;DHT22;64929;51.178;4.138;2024-03-22T01:55:26;12.80;99.90
76172;DHT22;64929;51.178;4.138;2024-03-22T01:57:52;13.00;99.90
76172;DHT22;64929;51.178;4.138;2024-03-22T02:00:18;12.80;99.90
76172;DHT22;64929;51.178;4.138;2024-03-22T02:02:44;12.70;99.90
76172;DHT22;64929;51.178;4.138;2024-03-22T02:07:38;12.90;99.90
76172;DHT22;64929;51.178;4.138;2024-03-22T02:10:04;13.00;99.90
76172;DHT22;64929;51.178;4.138;2024-03-22T02:12:30;12.80;99.90
76172;DHT22;64929;51.178;4.138;2024-03-22T02:14:58;12.70;99.90
76172;DHT22;64929;51.178;4.138;2024-03-22T02:17:24;12.90;99.90
76172;DHT22;64929;51.178;4.138;2024-03-22T02:19:49;13.10;99.90
76172;DHT22;64929;51.178;4.138;2024-03-22T02:22:15;12.80;99.90
76172;DHT22;64929;51.178;4.138;2024-03-22T02:24:40;12.90;99.90
76172;DHT22;64929;51.178;4.138;2024-03-22T02:27:06;13.10;99.90
76172;DHT22;64929;51.178;4.138;2024-03-22T02:29:31;12.90;99.90
76172;DHT22;64929;51.178;4.138;2024-03-22T02:31:57;12.80;99.90
76172;DHT22;64929;51.178;4.138;2024-03-22T02:34:23;12.80;99.90
76172;DHT22;64929;51.178;4.138;2024-03-22T02:36:49;12.80;99.90
76172;DHT22;64929;51.178;4.138;2024-03-22T02:39:14;12.60;99.90
76172;DHT22;64929;51.178;4.138;2024-03-22T02:41:40;12.50;99.90
76172;DHT22;64929;51.178;4.138;2024-03-22T02:44:06;12.30;99.90
76172;DHT22;64929;51.178;4.138;2024-03-22T02:46:31;12.10;99.90
76172;DHT22;64929;51.178;4.138;2024-03-22T02:48:57;12.00;99.90
76172;DHT22;64929;51.178;4.138;2024-03-22T02:51:22;11.90;99.90
76172;DHT22;64929;51.178;4.138;2024-03-22T02:53:48;11.70;99.90
76172;DHT22;64929;51.178;4.138;2024-03-22T02:56:13;11.70;99.90
76172;DHT22;64929;51.178;4.138;2024-03-22T02:58:39;11.70;99.90
76172;DHT22;64929;51.178;4.138;2024-03-22T03:01:05;11.70;99.90
76172;DHT22;64929;51.178;4.138;2024-03-22T03:03:31;11.80;99.90
76172;DHT22;64929;51.178;4.138;2024-03-22T03:05:56;11.70;99.90
76172;DHT22;64929;51.178;4.138;2024-03-22T03:08:22;11.60;99.90
76172;DHT22;64929;51.178;4.138;2024-03-22T03:10:47;11.50;99.90
76172;DHT22;64929;51.178;4.138;2024-03-22T03:13:13;11.60;99.90
76172;DHT22;64929;51.178;4.138;2024-03-22T03:15:39;11.60;99.90
76172;DHT22;64929;51.178;4.138;2024-03-22T03:18:04;11.70;99.90
76172;DHT22;64929;51.178;4.138;2024-03-22T03:20:30;11.60;99.90
76172;DHT22;64929;51.178;4.138;2024-03-22T03:22:55;11.60;99.90
76172;DHT22;64929;51.178;4.138;2024-03-22T03:25:25;11.60;99.90
76172;DHT22;64929;51.178;4.138;2024-03-22T03:27:51;11.60;99.90
76172;DHT22;64929;51.178;4.138;2024-03-22T03:30:16;11.60;99.90
76172;DHT22;64929;51.178;4.138;2024-03-22T03:32:42;11.60;99.90
76172;DHT22;64929;51.178;4.138;2024-03-22T03:35:07;11.60;99.90
76172;DHT22;64929;51.178;4.138;2024-03-22T03:37:33;11.50;99.90
76172;DHT22;64929;51.178;4.138;2024-03-22T03:39:58;11.50;99.90
76172;DHT22;64929;51.178;4.138;2024-03-22T03:42:24;11.50;99.90
76172;DHT22;64929;51.178;4.138;2024-03-22T03:44:50;11.50;99.90
76172;DHT22;64929;51.178;4.138;2024-03-22T03:47:15;11.60;99.90
76172;DHT22;64929;51.178;4.138;2024-03-22T03:49:41;11.50;99.90
76172;DHT22;64929;51.178;4.138;2024-03-22T03:52:06;11.40;99.90
76172;DHT22;64929;51.178;4.138;2024-03-22T03:54:32;11.50;99.90
76172;DHT22;64929;51.178;4.138;2024-03-22T03:56:57;11.50;99.90
76172;DHT22;64929;51.178;4.138;2024-03-22T03:59:23;11.50;99.90
76172;DHT22;64929;51.178;4.138;2024-03-22T04:01:49;11.50;99.90
76172;DHT22;64929;51.178;4.138;2024-03-22T04:04:14;11.50;99.90
76172;DHT22;64929;51.178;4.138;2024-03-22T04:06:40;11.50;99.90
76172;DHT22;64929;51.178;4.138;2024-03-22T04:09:05;11.60;99.90
76172;DHT22;64929;51.178;4.138;2024-03-22T04:11:31;11.50;99.90
76172;DHT22;64929;51.178;4.138;2024-03-22T04:13:56;11.50;99.90
76172;DHT22;64929;51.178;4.138;2024-03-22T04:16:22;11.50;99.90
76172;DHT22;64929;51.178;4.138;2024-03-22T04:18:47;11.60;99.90
76172;DHT22;64929;51.178;4.138;2024-03-22T04:21:13;11.60;99.90
76172;DHT22;64929;51.178;4.138;2024-03-22T04:23:38;11.60;99.90
76172;DHT22;64929;51.178;4.138;2024-03-22T04:26:04;11.60;99.90
76172;DHT22;64929;51.178;4.138;2024-03-22T04:28:30;11.60;99.90
76172;DHT22;64929;51.178;4.138;2024-03-22T04:30:59;11.60;99.90
76172;DHT22;64929;51.178;4.138;2024-03-22T04:33:25;11.70;99.90
76172;DHT22;64929;51.178;4.138;2024-03-22T04:35:51;11.50;99.90
76172;DHT22;64929;51.178;4.138;2024-03-22T04:38:16;11.60;99.90
76172;DHT22;64929;51.178;4.138;2024-03-22T04:40:42;11.60;99.90
76172;DHT22;64929;51.178;4.138;2024-03-22T04:43:08;11.60;99.90
76172;DHT22;64929;51.178;4.138;2024-03-22T04:45:33;11.50;99.90
76172;DHT22;64929;51.178;4.138;2024-03-22T04:48:00;11.60;99.90
76172;DHT22;64929;51.178;4.138;2024-03-22T04:50:26;11.60;99.90
76172;DHT22;64929;51.178;4.138;2024-03-22T04:52:52;11.50;99.90
76172;DHT22;64929;51.178;4.138;2024-03-22T04:55:17;11.40;99.90
76172;DHT22;64929;51.178;4.138;2024-03-22T04:57:43;11.30;99.90
76172;DHT22;64929;51.178;4.138;2024-03-22T05:00:08;11.40;99.90
76172;DHT22;64929;51.178;4.138;2024-03-22T05:02:34;11.40;99.90
76172;DHT22;64929;51.178;4.138;2024-03-22T05:05:00;11.50;99.90
76172;DHT22;64929;51.178;4.138;2024-03-22T05:07:25;11.50;99.90
76172;DHT22;64929;51.178;4.138;2024-03-22T05:09:51;11.40;99.90
76172;DHT22;64929;51.178;4.138;2024-03-22T05:12:16;11.30;99.90
76172;DHT22;64929;51.178;4.138;2024-03-22T05:14:42;11.40;99.90
76172;DHT22;64929;51.178;4.138;2024-03-22T05:17:08;11.40;99.90
76172;DHT22;64929;51.178;4.138;2024-03-22T05:19:33;11.40;99.90
76172;DHT22;64929;51.178;4.138;2024-03-22T05:21:59;11.50;99.90
76172;DHT22;64929;51.178;4.138;2024-03-22T05:24:25;11.60;99.90
76172;DHT22;64929;51.178;4.138;2024-03-22T05:26:51;11.50;99.90
76172;DHT22;64929;51.178;4.138;2024-03-22T05:29:16;11.50;99.90
76172;DHT22;64929;51.178;4.138;2024-03-22T05:31:49;11.40;99.90
76172;DHT22;64929;51.178;4.138;2024-03-22T05:34:16;11.30;99.90
76172;DHT22;64929;51.178;4.138;2024-03-22T05:36:42;11.20;99.90
76172;DHT22;64929;51.178;4.138;2024-03-22T05:39:07;11.40;99.90
76172;DHT22;64929;51.178;4.138;2024-03-22T05:41:33;11.50;99.90
76172;DHT22;64929;51.178;4.138;2024-03-22T05:43:59;11.50;99.90
76172;DHT22;64929;51.178;4.138;2024-03-22T05:46:24;11.50;99.90
76172;DHT22;64929;51.178;4.138;2024-03-22T05:48:50;11.50;99.90
76172;DHT22;64929;51.178;4.138;2024-03-22T05:51:16;11.50;99.90
76172;DHT22;64929;51.178;4.138;2024-03-22T05:53:41;11.50;99.90
76172;DHT22;64929;51.178;4.138;2024-03-22T05:56:07;11.60;99.90
76172;DHT22;64929;51.178;4.138;2024-03-22T05:58:33;11.50;99.90
76172;DHT22;64929;51.178;4.138;2024-03-22T06:00:58;11.60;99.90
76172;DHT22;64929;51.178;4.138;2024-03-22T06:03:24;11.50;99.90
76172;DHT22;64929;51.178;4.138;2024-03-22T06:05:49;11.40;99.90
76172;DHT22;64929;51.178;4.138;2024-03-22T06:08:15;11.60;99.90
76172;DHT22;64929;51.178;4.138;2024-03-22T06:10:44;11.50;99.90
76172;DHT22;64929;51.178;4.138;2024-03-22T06:13:10;11.60;99.90
76172;DHT22;64929;51.178;4.138;2024-03-22T06:15:36;11.60;99.90
76172;DHT22;64929;51.178;4.138;2024-03-22T06:18:01;11.50;99.90
76172;DHT22;64929;51.178;4.138;2024-03-22T06:20:27;11.50;99.90
76172;DHT22;64929;51.178;4.138;2024-03-22T06:22:52;11.60;99.90
76172;DHT22;64929;51.178;4.138;2024-03-22T06:25:18;11.50;99.90
76172;DHT22;64929;51.178;4.138;2024-03-22T06:27:43;11.40;99.90
76172;DHT22;64929;51.178;4.138;2024-03-22T06:30:09;11.70;99.90
76172;DHT22;64929;51.178;4.138;2024-03-22T06:32:35;11.80;99.90
76172;DHT22;64929;51.178;4.138;2024-03-22T06:35:00;11.60;99.90
76172;DHT22;64929;51.178;4.138;2024-03-22T06:37:26;11.60;99.90
76172;DHT22;64929;51.178;4.138;2024-03-22T06:39:51;11.50;99.90
76172;DHT22;64929;51.178;4.138;2024-03-22T06:42:17;11.60;99.90
76172;DHT22;64929;51.178;4.138;2024-03-22T06:44:42;11.70;99.90
76172;DHT22;64929;51.178;4.138;2024-03-22T06:47:08;11.80;99.90
76172;DHT22;64929;51.178;4.138;2024-03-22T06:49:33;11.80;99.90
76172;DHT22;64929;51.178;4.138;2024-03-22T06:51:59;11.90;99.90
76172;DHT22;64929;51.178;4.138;2024-03-22T06:54:25;11.80;99.90
76172;DHT22;64929;51.178;4.138;2024-03-22T06:56:51;11.70;99.90
76172;DHT22;64929;51.178;4.138;2024-03-22T06:59:16;11.70;99.90
76172;DHT22;64929;51.178;4.138;2024-03-22T07:01:42;11.60;99.90
76172;DHT22;64929;51.178;4.138;2024-03-22T07:04:08;11.60;99.90
76172;DHT22;64929;51.178;4.138;2024-03-22T07:06:34;11.50;99.90
76172;DHT22;64929;51.178;4.138;2024-03-22T07:08:59;11.40;99.90
76172;DHT22;64929;51.178;4.138;2024-03-22T07:11:25;11.40;99.90
76172;DHT22;64929;51.178;4.138;2024-03-22T07:13:50;11.60;99.90
76172;DHT22;64929;51.178;4.138;2024-03-22T07:16:16;11.70;99.90
76172;DHT22;64929;51.178;4.138;2024-03-22T07:18:41;11.70;99.90
76172;DHT22;64929;51.178;4.138;2024-03-22T07:21:07;11.80;99.90
76172;DHT22;64929;51.178;4.138;2024-03-22T07:23:33;11.90;99.90
76172;DHT22;64929;51.178;4.138;2024-03-22T07:25:58;12.00;99.90
76172;DHT22;64929;51.178;4.138;2024-03-22T07:28:25;12.00;99.90
76172;DHT22;64929;51.178;4.138;2024-03-22T07:30:50;12.00;99.90
76172;DHT22;64929;51.178;4.138;2024-03-22T07:33:16;12.00;99.90
76172;DHT22;64929;51.178;4.138;2024-03-22T07:35:44;12.00;99.90
76172;DHT22;64929;51.178;4.138;2024-03-22T07:38:10;12.10;99.90
76172;DHT22;64929;51.178;4.138;2024-03-22T07:40:35;12.10;99.90
76172;DHT22;64929;51.178;4.138;2024-03-22T07:43:01;12.00;99.90
76172;DHT22;64929;51.178;4.138;2024-03-22T07:45:33;12.10;99.90
76172;DHT22;64929;51.178;4.138;2024-03-22T07:47:59;12.10;99.90
76172;DHT22;64929;51.178;4.138;2024-03-22T07:50:25;12.10;99.90
76172;DHT22;64929;51.178;4.138;2024-03-22T07:52:50;12.10;99.90
76172;DHT22;64929;51.178;4.138;2024-03-22T07:55:17;12.00;99.90
76172;DHT22;64929;51.178;4.138;2024-03-22T07:57:42;12.10;99.90
76172;DHT22;64929;51.178;4.138;2024-03-22T08:00:08;12.30;99.90
76172;DHT22;64929;51.178;4.138;2024-03-22T08:02:34;12.20;99.90
76172;DHT22;64929;51.178;4.138;2024-03-22T08:05:00;12.20;99.90
76172;DHT22;64929;51.178;4.138;2024-03-22T08:07:27;12.20;99.90
76172;DHT22;64929;51.178;4.138;2024-03-22T08:09:55;12.40;99.90
76172;DHT22;64929;51.178;4.138;2024-03-22T08:12:21;12.60;99.90
76172;DHT22;64929;51.178;4.138;2024-03-22T08:14:47;12.70;99.90
76172;DHT22;64929;51.178;4.138;2024-03-22T08:17:12;12.70;99.90
76172;DHT22;64929;51.178;4.138;2024-03-22T08:19:38;12.90;99.90
76172;DHT22;64929;51.178;4.138;2024-03-22T08:22:04;12.50;99.90
76172;DHT22;64929;51.178;4.138;2024-03-22T08:24:30;12.40;99.90
76172;DHT22;64929;51.178;4.138;2024-03-22T08:26:55;12.40;99.90
76172;DHT22;64929;51.178;4.138;2024-03-22T08:29:21;12.40;99.90
76172;DHT22;64929;51.178;4.138;2024-03-22T08:31:47;12.60;99.90
76172;DHT22;64929;51.178;4.138;2024-03-22T08:34:12;12.80;99.90
76172;DHT22;64929;51.178;4.138;2024-03-22T08:36:38;12.70;99.90
76172;DHT22;64929;51.178;4.138;2024-03-22T08:39:03;12.80;99.90
76172;DHT22;64929;51.178;4.138;2024-03-22T08:41:30;13.00;99.90
76172;DHT22;64929;51.178;4.138;2024-03-22T08:43:56;13.00;99.90
76172;DHT22;64929;51.178;4.138;2024-03-22T08:46:22;13.00;99.90
76172;DHT22;64929;51.178;4.138;2024-03-22T08:48:50;12.80;99.90
76172;DHT22;64929;51.178;4.138;2024-03-22T08:51:15;12.60;99.90
76172;DHT22;64929;51.178;4.138;2024-03-22T08:53:41;12.70;99.90
76172;DHT22;64929;51.178;4.138;2024-03-22T08:56:07;12.60;99.90
76172;DHT22;64929;51.178;4.138;2024-03-22T08:58:33;12.70;99.90
76172;DHT22;64929;51.178;4.138;2024-03-22T09:00:58;12.60;99.90
76172;DHT22;64929;51.178;4.138;2024-03-22T09:03:24;12.40;99.90
76172;DHT22;64929;51.178;4.138;2024-03-22T09:05:53;12.40;99.90
76172;DHT22;64929;51.178;4.138;2024-03-22T09:08:19;12.30;99.90
76172;DHT22;64929;51.178;4.138;2024-03-22T09:10:45;12.50;99.90
76172;DHT22;64929;51.178;4.138;2024-03-22T09:13:10;12.60;99.90
76172;DHT22;64929;51.178;4.138;2024-03-22T09:15:38;12.60;99.90
76172;DHT22;64929;51.178;4.138;2024-03-22T09:18:04;12.50;99.90
76172;DHT22;64929;51.178;4.138;2024-03-22T09:20:29;12.50;99.90
76172;DHT22;64929;51.178;4.138;2024-03-22T09:22:55;12.90;99.90
76172;DHT22;64929;51.178;4.138;2024-03-22T09:25:20;12.70;99.90
76172;DHT22;64929;51.178;4.138;2024-03-22T09:27:46;12.80;99.90
76172;DHT22;64929;51.178;4.138;2024-03-22T09:30:12;13.00;99.90
76172;DHT22;64929;51.178;4.138;2024-03-22T09:32:38;12.90;99.90
76172;DHT22;64929;51.178;4.138;2024-03-22T09:35:03;12.90;99.90
76172;DHT22;64929;51.178;4.138;2024-03-22T09:37:29;12.90;99.90
76172;DHT22;64929;51.178;4.138;2024-03-22T09:39:54;12.90;99.90
76172;DHT22;64929;51.178;4.138;2024-03-22T09:42:20;13.00;99.90
76172;DHT22;64929;51.178;4.138;2024-03-22T09:44:48;13.10;99.90
76172;DHT22;64929;51.178;4.138;2024-03-22T09:47:19;13.20;99.90
76172;DHT22;64929;51.178;4.138;2024-03-22T09:49:46;12.90;99.90
76172;DHT22;64929;51.178;4.138;2024-03-22T09:52:14;12.80;99.90
76172;DHT22;64929;51.178;4.138;2024-03-22T09:54:43;13.00;99.90
76172;DHT22;64929;51.178;4.138;2024-03-22T09:57:15;13.10;99.90
76172;DHT22;64929;51.178;4.138;2024-03-22T09:59:43;12.90;99.90
76172;DHT22;64929;51.178;4.138;2024-03-22T10:02:13;12.90;99.90
76172;DHT22;64929;51.178;4.138;2024-03-22T10:04:41;13.20;99.90
76172;DHT22;64929;51.178;4.138;2024-03-22T10:07:07;13.10;99.90
76172;DHT22;64929;51.178;4.138;2024-03-22T10:09:36;13.10;99.90
76172;DHT22;64929;51.178;4.138;2024-03-22T10:12:02;13.10;99.90
76172;DHT22;64929;51.178;4.138;2024-03-22T10:14:29;13.00;99.90
76172;DHT22;64929;51.178;4.138;2024-03-22T10:16:56;12.80;99.90
76172;DHT22;64929;51.178;4.138;2024-03-22T10:19:22;12.90;99.90
76172;DHT22;64929;51.178;4.138;2024-03-22T10:21:58;13.00;99.90
76172;DHT22;64929;51.178;4.138;2024-03-22T10:24:24;13.00;99.90
76172;DHT22;64929;51.178;4.138;2024-03-22T10:26:50;12.80;99.90
76172;DHT22;64929;51.178;4.138;2024-03-22T10:29:15;12.90;99.90
76172;DHT22;64929;51.178;4.138;2024-03-22T10:31:41;13.00;99.90
76172;DHT22;64929;51.178;4.138;2024-03-22T10:34:07;13.20;99.90
76172;DHT22;64929;51.178;4.138;2024-03-22T10:36:33;13.10;99.90
76172;DHT22;64929;51.178;4.138;2024-03-22T10:38:59;13.00;99.90
76172;DHT22;64929;51.178;4.138;2024-03-22T10:41:25;12.90;99.90
76172;DHT22;64929;51.178;4.138;2024-03-22T10:43:52;12.90;99.90
76172;DHT22;64929;51.178;4.138;2024-03-22T10:46:17;12.80;99.90
76172;DHT22;64929;51.178;4.138;2024-03-22T10:48:45;12.80;99.90
76172;DHT22;64929;51.178;4.138;2024-03-22T10:51:11;12.80;99.90
76172;DHT22;64929;51.178;4.138;2024-03-22T10:53:37;12.90;99.90
76172;DHT22;64929;51.178;4.138;2024-03-22T10:56:03;13.10;99.90
76172;DHT22;64929;51.178;4.138;2024-03-22T10:58:29;13.00;99.90
76172;DHT22;64929;51.178;4.138;2024-03-22T11:00:56;13.10;99.90
76172;DHT22;64929;51.178;4.138;2024-03-22T11:03:25;13.10;99.90
76172;DHT22;64929;51.178;4.138;2024-03-22T11:05:55;12.80;99.90
76172;DHT22;64929;51.178;4.138;2024-03-22T11:08:27;13.00;99.90
76172;DHT22;64929;51.178;4.138;2024-03-22T11:10:53;13.10;99.90
76172;DHT22;64929;51.178;4.138;2024-03-22T11:13:19;12.90;99.90
76172;DHT22;64929;51.178;4.138;2024-03-22T11:15:48;13.10;99.90
76172;DHT22;64929;51.178;4.138;2024-03-22T11:18:14;13.20;99.90
76172;DHT22;64929;51.178;4.138;2024-03-22T11:20:41;13.30;99.90
76172;DHT22;64929;51.178;4.138;2024-03-22T11:23:07;13.30;99.90
76172;DHT22;64929;51.178;4.138;2024-03-22T11:25:33;13.10;99.90
76172;DHT22;64929;51.178;4.138;2024-03-22T11:27:59;13.00;99.90
76172;DHT22;64929;51.178;4.138;2024-03-22T11:30:29;13.00;99.90
76172;DHT22;64929;51.178;4.138;2024-03-22T11:32:55;13.00;99.90
76172;DHT22;64929;51.178;4.138;2024-03-22T11:35:21;13.00;99.90
76172;DHT22;64929;51.178;4.138;2024-03-22T11:37:46;12.90;99.90
76172;DHT22;64929;51.178;4.138;2024-03-22T11:40:12;12.90;99.90
76172;DHT22;64929;51.178;4.138;2024-03-22T11:42:42;13.00;99.90
76172;DHT22;64929;51.178;4.138;2024-03-22T11:45:10;13.00;99.90
76172;DHT22;64929;51.178;4.138;2024-03-22T11:47:36;13.10;99.90
76172;DHT22;64929;51.178;4.138;2024-03-22T11:50:01;13.10;99.90
76172;DHT22;64929;51.178;4.138;2024-03-22T11:52:30;13.10;99.90
76172;DHT22;64929;51.178;4.138;2024-03-22T11:54:56;13.00;99.90
76172;DHT22;64929;51.178;4.138;2024-03-22T11:57:22;13.00;99.90
76172;DHT22;64929;51.178;4.138;2024-03-22T11:59:48;13.10;99.90
76172;DHT22;64929;51.178;4.138;2024-03-22T12:02:14;13.10;99.90
76172;DHT22;64929;51.178;4.138;2024-03-22T12:04:40;13.10;99.90
76172;DHT22;64929;51.178;4.138;2024-03-22T12:07:09;13.20;99.90
76172;DHT22;64929;51.178;4.138;2024-03-22T12:09:35;13.20;99.90
76172;DHT22;64929;51.178;4.138;2024-03-22T12:12:01;13.10;99.90
76172;DHT22;64929;51.178;4.138;2024-03-22T12:14:27;12.90;99.90
76172;DHT22;64929;51.178;4.138;2024-03-22T12:16:52;13.00;99.90
76172;DHT22;64929;51.178;4.138;2024-03-22T12:19:18;12.90;99.90
76172;DHT22;64929;51.178;4.138;2024-03-22T12:21:43;12.70;99.90
76172;DHT22;64929;51.178;4.138;2024-03-22T12:24:09;12.80;99.90
76172;DHT22;64929;51.178;4.138;2024-03-22T12:26:34;12.80;99.90
76172;DHT22;64929;51.178;4.138;2024-03-22T12:29:00;12.80;99.90
76172;DHT22;64929;51.178;4.138;2024-03-22T12:31:25;12.80;99.90
76172;DHT22;64929;51.178;4.138;2024-03-22T12:33:51;12.80;99.90
76172;DHT22;64929;51.178;4.138;2024-03-22T12:36:16;12.80;99.90
76172;DHT22;64929;51.178;4.138;2024-03-22T12:38:42;12.50;99.90
76172;DHT22;64929;51.178;4.138;2024-03-22T12:41:08;12.40;99.90
76172;DHT22;64929;51.178;4.138;2024-03-22T12:43:33;12.60;99.90
76172;DHT22;64929;51.178;4.138;2024-03-22T12:45:59;12.80;99.90
76172;DHT22;64929;51.178;4.138;2024-03-22T12:48:24;12.80;99.90
76172;DHT22;64929;51.178;4.138;2024-03-22T12:50:50;12.80;99.90
76172;DHT22;64929;51.178;4.138;2024-03-22T12:53:16;12.90;99.90
76172;DHT22;64929;51.178;4.138;2024-03-22T12:55:42;12.60;99.90
76172;DHT22;64929;51.178;4.138;2024-03-22T12:58:07;12.60;99.90
76172;DHT22;64929;51.178;4.138;2024-03-22T13:00:33;12.60;99.90
76172;DHT22;64929;51.178;4.138;2024-03-22T13:02:59;12.70;99.90
76172;DHT22;64929;51.178;4.138;2024-03-22T13:05:25;12.60;99.90
76172;DHT22;64929;51.178;4.138;2024-03-22T13:07:51;12.70;99.90
76172;DHT22;64929;51.178;4.138;2024-03-22T13:10:16;12.90;99.90
76172;DHT22;64929;51.178;4.138;2024-03-22T13:12:42;12.90;99.90
76172;DHT22;64929;51.178;4.138;2024-03-22T13:15:08;12.80;99.90
76172;DHT22;64929;51.178;4.138;2024-03-22T13:17:33;12.50;99.90
76172;DHT22;64929;51.178;4.138;2024-03-22T13:19:59;12.50;99.90
76172;DHT22;64929;51.178;4.138;2024-03-22T13:22:25;12.60;99.90
76172;DHT22;64929;51.178;4.138;2024-03-22T13:24:50;12.50;99.90
76172;DHT22;64929;51.178;4.138;2024-03-22T13:27:16;12.80;99.90
76172;DHT22;64929;51.178;4.138;2024-03-22T13:29:42;12.50;99.90
76172;DHT22;64929;51.178;4.138;2024-03-22T13:32:08;12.60;99.90
76172;DHT22;64929;51.178;4.138;2024-03-22T13:34:37;12.60;99.90
76172;DHT22;64929;51.178;4.138;2024-03-22T13:37:02;12.30;99.90
76172;DHT22;64929;51.178;4.138;2024-03-22T13:39:28;12.30;99.90
76172;DHT22;64929;51.178;4.138;2024-03-22T13:41:56;12.40;99.90
76172;DHT22;64929;51.178;4.138;2024-03-22T13:44:22;12.40;99.90
76172;DHT22;64929;51.178;4.138;2024-03-22T13:46:51;12.30;99.90
76172;DHT22;64929;51.178;4.138;2024-03-22T13:49:17;12.20;99.90
76172;DHT22;64929;51.178;4.138;2024-03-22T13:51:43;12.10;99.90
76172;DHT22;64929;51.178;4.138;2024-03-22T13:54:09;12.40;99.90
76172;DHT22;64929;51.178;4.138;2024-03-22T13:56:35;12.60;99.90
76172;DHT22;64929;51.178;4.138;2024-03-22T13:59:01;12.60;99.90
76172;DHT22;64929;51.178;4.138;2024-03-22T14:01:27;12.40;99.90
76172;DHT22;64929;51.178;4.138;2024-03-22T14:03:53;12.20;99.90
76172;DHT22;64929;51.178;4.138;2024-03-22T14:06:18;12.30;99.90
76172;DHT22;64929;51.178;4.138;2024-03-22T14:08:44;12.50;99.90
76172;DHT22;64929;51.178;4.138;2024-03-22T14:11:10;12.40;99.90
76172;DHT22;64929;51.178;4.138;2024-03-22T14:13:35;12.20;99.90
76172;DHT22;64929;51.178;4.138;2024-03-22T14:16:01;12.10;99.90
76172;DHT22;64929;51.178;4.138;2024-03-22T14:18:27;12.10;99.90
76172;DHT22;64929;51.178;4.138;2024-03-22T14:20:52;12.10;99.90
76172;DHT22;64929;51.178;4.138;2024-03-22T14:23:18;12.00;99.90
76172;DHT22;64929;51.178;4.138;2024-03-22T14:25:44;12.00;99.90
76172;DHT22;64929;51.178;4.138;2024-03-22T14:28:12;12.00;99.90
76172;DHT22;64929;51.178;4.138;2024-03-22T14:30:37;12.00;99.90
76172;DHT22;64929;51.178;4.138;2024-03-22T14:33:03;12.10;99.90
76172;DHT22;64929;51.178;4.138;2024-03-22T14:35:30;12.20;99.90
76172;DHT22;64929;51.178;4.138;2024-03-22T14:37:55;12.50;99.90
76172;DHT22;64929;51.178;4.138;2024-03-22T14:40:21;12.40;99.90
76172;DHT22;64929;51.178;4.138;2024-03-22T14:42:46;12.20;99.90
76172;DHT22;64929;51.178;4.138;2024-03-22T14:45:12;12.40;99.90
76172;DHT22;64929;51.178;4.138;2024-03-22T14:47:37;12.20;99.90
76172;DHT22;64929;51.178;4.138;2024-03-22T14:50:03;12.10;99.90
76172;DHT22;64929;51.178;4.138;2024-03-22T14:52:29;11.90;99.90
76172;DHT22;64929;51.178;4.138;2024-03-22T14:54:55;12.00;99.90
76172;DHT22;64929;51.178;4.138;2024-03-22T14:57:21;12.20;99.90
76172;DHT22;64929;51.178;4.138;2024-03-22T14:59:46;12.20;99.90
76172;DHT22;64929;51.178;4.138;2024-03-22T15:02:13;12.10;99.90
76172;DHT22;64929;51.178;4.138;2024-03-22T15:04:39;11.90;99.90
76172;DHT22;64929;51.178;4.138;2024-03-22T15:07:04;12.00;99.90
76172;DHT22;64929;51.178;4.138;2024-03-22T15:09:30;12.00;99.90
76172;DHT22;64929;51.178;4.138;2024-03-22T15:11:55;12.00;99.90
76172;DHT22;64929;51.178;4.138;2024-03-22T15:14:25;11.90;99.90
76172;DHT22;64929;51.178;4.138;2024-03-22T15:16:52;12.00;99.90
76172;DHT22;64929;51.178;4.138;2024-03-22T15:19:18;12.20;99.90
76172;DHT22;64929;51.178;4.138;2024-03-22T15:21:43;12.10;99.90
76172;DHT22;64929;51.178;4.138;2024-03-22T15:24:09;12.10;99.90